createdAt,value
2022-12-12T00:01:04.774Z,19.07
2022-12-12T00:03:32.229Z,20.23
2022-12-12T00:05:59.479Z,19.13
2022-12-12T00:08:26.685Z,19.67
2022-12-12T00:10:53.905Z,20.03
2022-12-12T00:13:21.007Z,19.30
2022-12-12T00:15:48.159Z,19.33
2022-12-12T00:18:15.315Z,17.67
2022-12-12T00:20:42.422Z,18.70
2022-12-12T00:23:09.518Z,18.87
2022-12-12T00:25:36.669Z,19.70
2022-12-12T00:28:03.826Z,18.03
2022-12-12T00:30:30.900Z,18.63
2022-12-12T00:32:58.006Z,18.20
2022-12-12T00:35:25.184Z,19.20
2022-12-12T00:37:52.320Z,18.43
2022-12-12T00:40:19.467Z,18.13
2022-12-12T00:42:46.592Z,19.93
2022-12-12T00:45:13.924Z,18.73
2022-12-12T00:47:41.321Z,19.13
2022-12-12T00:50:08.632Z,19.17
2022-12-12T00:52:35.726Z,18.80
2022-12-12T00:55:02.841Z,18.97
2022-12-12T00:57:30.098Z,19.93
2022-12-12T00:59:58.344Z,19.37
2022-12-12T01:02:28.308Z,19.10
2022-12-12T01:04:55.681Z,18.93
2022-12-12T01:07:23.490Z,19.23
2022-12-12T01:09:50.618Z,18.87
2022-12-12T01:12:17.769Z,19.53
2022-12-12T01:14:44.851Z,18.40
2022-12-12T01:17:11.968Z,20.23
2022-12-12T01:19:39.135Z,18.67
2022-12-12T01:22:06.251Z,19.50
2022-12-12T01:24:33.385Z,19.53
2022-12-12T01:27:00.481Z,20.13
2022-12-12T01:29:27.771Z,20.87
2022-12-12T01:31:55.240Z,19.00
2022-12-12T01:34:22.328Z,20.23
2022-12-12T01:36:49.485Z,20.20
2022-12-12T01:39:16.622Z,21.23
2022-12-12T01:41:44.904Z,21.07
2022-12-12T01:44:30.573Z,21.37
2022-12-12T01:46:57.800Z,20.80
2022-12-12T01:49:26.015Z,20.23
2022-12-12T01:51:54.419Z,19.87
2022-12-12T01:54:23.989Z,19.83
2022-12-12T01:56:52.131Z,19.77
2022-12-12T01:59:21.718Z,20.60
2022-12-12T02:01:49.105Z,19.20
2022-12-12T02:04:16.713Z,19.67
2022-12-12T02:06:44.006Z,19.47
2022-12-12T02:09:13.149Z,19.23
2022-12-12T02:11:45.475Z,19.33
2022-12-12T02:14:13.498Z,19.47
2022-12-12T02:16:50.308Z,21.00
2022-12-12T02:19:43.925Z,19.97
2022-12-12T02:22:20.581Z,19.70
2022-12-12T02:24:57.003Z,20.23
2022-12-12T02:27:24.102Z,20.20
2022-12-12T02:30:06.483Z,21.10
2022-12-12T02:32:45.428Z,20.80
2022-12-12T02:35:18.510Z,21.27
2022-12-12T02:37:51.505Z,22.33
2022-12-12T02:40:24.437Z,20.80
2022-12-12T02:43:06.747Z,22.37
2022-12-12T02:45:51.546Z,21.53
2022-12-12T02:48:21.702Z,21.97
2022-12-12T02:50:50.503Z,22.17
2022-12-12T02:53:18.642Z,21.33
2022-12-12T02:55:45.822Z,21.50
2022-12-12T02:58:13.771Z,23.47
2022-12-12T03:00:46.103Z,22.50
2022-12-12T03:03:42.637Z,22.90
2022-12-12T03:06:40.974Z,23.00
2022-12-12T03:09:15.095Z,23.70
2022-12-12T03:12:02.342Z,23.77
2022-12-12T03:14:29.420Z,24.00
2022-12-12T03:17:09.160Z,22.73
2022-12-12T03:19:54.937Z,23.23
2022-12-12T03:22:25.105Z,22.30
2022-12-12T03:24:52.187Z,22.80
2022-12-12T03:27:22.740Z,21.63
2022-12-12T03:29:55.960Z,22.07
2022-12-12T03:32:24.323Z,23.47
2022-12-12T03:34:56.592Z,23.53
2022-12-12T03:37:28.968Z,23.27
2022-12-12T03:40:02.218Z,23.77
2022-12-12T03:42:43.298Z,23.03
2022-12-12T03:45:10.774Z,24.57
2022-12-12T03:47:51.973Z,22.33
2022-12-12T03:50:31.141Z,22.93
2022-12-12T03:53:01.253Z,23.27
2022-12-12T03:55:38.670Z,21.50
2022-12-12T03:58:24.844Z,22.30
2022-12-12T04:00:53.074Z,22.17
2022-12-12T04:03:28.506Z,22.40
2022-12-12T04:06:19.306Z,23.37
2022-12-12T04:09:06.958Z,22.00
2022-12-12T04:12:01.521Z,20.97
2022-12-12T04:14:41.747Z,21.57
2022-12-12T04:17:13.843Z,23.50
2022-12-12T04:20:03.653Z,22.27
2022-12-12T04:22:54.476Z,22.67
2022-12-12T04:25:33.713Z,23.70
2022-12-12T04:28:04.295Z,23.73
2022-12-12T04:30:32.469Z,23.33
2022-12-12T04:33:06.508Z,26.13
2022-12-12T04:35:35.464Z,24.83
2022-12-12T04:38:05.439Z,24.73
2022-12-12T04:40:37.537Z,25.87
2022-12-12T04:43:06.810Z,27.07
2022-12-12T04:45:36.298Z,29.87
2022-12-12T04:48:04.598Z,28.00
2022-12-12T04:50:33.543Z,29.37
2022-12-12T04:53:02.627Z,29.97
2022-12-12T04:55:32.053Z,30.13
2022-12-12T04:57:59.436Z,29.70
2022-12-12T05:00:29.785Z,31.30
2022-12-12T05:02:56.859Z,31.00
2022-12-12T05:05:36.195Z,30.60
2022-12-12T05:08:13.224Z,28.97
2022-12-12T05:10:44.494Z,28.87
2022-12-12T05:13:19.132Z,29.07
2022-12-12T05:15:47.822Z,27.40
2022-12-12T05:18:14.966Z,26.57
2022-12-12T05:20:42.084Z,27.30
2022-12-12T05:23:09.179Z,26.87
2022-12-12T05:25:36.496Z,26.63
2022-12-12T05:28:03.720Z,26.97
2022-12-12T05:30:30.917Z,29.27
2022-12-12T05:32:58.108Z,27.30
2022-12-12T05:35:25.345Z,26.37
2022-12-12T05:37:52.493Z,28.90
2022-12-12T05:40:20.554Z,28.03
2022-12-12T05:42:48.215Z,29.00
2022-12-12T05:45:15.661Z,28.27
2022-12-12T05:47:42.961Z,28.30
2022-12-12T05:50:10.310Z,27.50
2022-12-12T05:52:37.468Z,29.07
2022-12-12T05:55:04.895Z,29.63
2022-12-12T05:57:32.023Z,29.87
2022-12-12T05:59:59.157Z,28.50
2022-12-12T06:02:26.282Z,28.60
2022-12-12T06:04:53.374Z,30.20
2022-12-12T06:07:20.458Z,29.33
2022-12-12T06:09:47.573Z,28.90
2022-12-12T06:12:14.650Z,28.13
2022-12-12T06:14:41.828Z,25.63
2022-12-12T06:17:08.890Z,26.47
2022-12-12T06:19:36.018Z,25.93
2022-12-12T06:22:03.117Z,25.53
2022-12-12T06:24:30.210Z,25.30
2022-12-12T06:26:57.348Z,25.73
2022-12-12T06:29:24.550Z,25.10
2022-12-12T06:31:51.815Z,25.63
2022-12-12T06:34:19.033Z,27.43
2022-12-12T06:36:46.098Z,25.23
2022-12-12T06:39:13.406Z,27.90
2022-12-12T06:41:40.717Z,24.87
2022-12-12T06:44:07.809Z,25.00
2022-12-12T06:46:34.997Z,25.33
2022-12-12T06:49:03.071Z,30.20
2022-12-12T06:51:33.313Z,25.73
2022-12-12T06:54:00.432Z,26.97
2022-12-12T06:56:27.965Z,26.87
2022-12-12T06:58:55.483Z,34.63
2022-12-12T07:01:23.659Z,48.40
2022-12-12T07:03:51.778Z,44.00
2022-12-12T07:06:19.629Z,37.77
2022-12-12T07:08:47.135Z,33.77
2022-12-12T07:11:15.852Z,30.50
2022-12-12T07:13:43.272Z,30.63
2022-12-12T07:16:10.792Z,30.97
2022-12-12T07:18:38.324Z,30.70
2022-12-12T07:21:09.521Z,31.63
2022-12-12T07:23:37.273Z,30.23
2022-12-12T07:26:05.688Z,31.30
2022-12-12T07:28:32.957Z,32.00
2022-12-12T07:31:01.359Z,30.03
2022-12-12T07:33:38.259Z,29.13
2022-12-12T07:36:10.409Z,27.00
2022-12-12T07:38:37.757Z,28.17
2022-12-12T07:41:05.828Z,26.03
2022-12-12T07:43:34.600Z,26.67
2022-12-12T07:46:06.842Z,26.57
2022-12-12T07:48:34.305Z,26.50
2022-12-12T07:51:01.961Z,26.00
2022-12-12T07:53:29.992Z,28.17
2022-12-12T07:55:58.054Z,27.97
2022-12-12T07:58:25.170Z,27.93
2022-12-12T08:00:52.333Z,27.87
2022-12-12T08:03:19.484Z,28.13
2022-12-12T08:05:46.592Z,28.07
2022-12-12T08:08:13.828Z,31.33
2022-12-12T08:10:41.416Z,30.80
2022-12-12T08:13:08.599Z,30.57
2022-12-12T08:15:35.734Z,30.43
2022-12-12T08:18:02.850Z,30.13
2022-12-12T08:20:29.954Z,26.97
2022-12-12T08:22:57.101Z,26.50
2022-12-12T08:25:24.194Z,27.43
2022-12-12T08:27:51.316Z,26.47
2022-12-12T08:30:18.414Z,26.20
2022-12-12T08:32:45.506Z,26.70
2022-12-12T08:35:12.821Z,25.43
2022-12-12T08:37:40.160Z,27.83
2022-12-12T08:40:07.586Z,25.40
2022-12-12T08:42:34.685Z,25.53
2022-12-12T08:45:01.831Z,25.47
2022-12-12T08:47:29.535Z,24.53
2022-12-12T08:49:56.631Z,23.20
2022-12-12T08:52:23.746Z,25.10
2022-12-12T08:54:50.818Z,26.87
2022-12-12T08:57:21.415Z,27.13
2022-12-12T08:59:52.860Z,27.13
2022-12-12T09:02:20.107Z,27.03
2022-12-12T09:04:47.345Z,28.23
2022-12-12T09:07:14.475Z,27.10
2022-12-12T09:09:41.625Z,27.60
2022-12-12T09:12:09.143Z,24.07
2022-12-12T09:14:36.297Z,22.33
2022-12-12T09:17:03.432Z,21.90
2022-12-12T09:19:31.096Z,22.40
2022-12-12T09:21:58.193Z,21.93
2022-12-12T09:24:25.545Z,17.80
2022-12-12T09:26:52.633Z,17.60
2022-12-12T09:29:19.797Z,17.67
2022-12-12T09:31:46.989Z,18.10
2022-12-12T09:34:14.190Z,17.50
2022-12-12T09:36:41.373Z,18.17
2022-12-12T09:39:08.461Z,16.33
2022-12-12T09:41:35.558Z,15.97
2022-12-12T09:44:15.866Z,15.67
2022-12-12T09:46:55.453Z,15.30
2022-12-12T09:49:22.578Z,15.73
2022-12-12T09:51:51.364Z,16.27
2022-12-12T09:54:20.753Z,15.63
2022-12-12T09:57:06.690Z,16.77
2022-12-12T09:59:33.816Z,16.00
2022-12-12T10:02:18.197Z,15.50
2022-12-12T10:05:08.671Z,15.43
2022-12-12T10:07:39.984Z,15.10
2022-12-12T10:10:18.944Z,14.70
2022-12-12T10:12:46.370Z,13.67
2022-12-12T10:15:25.327Z,15.70
2022-12-12T10:17:53.401Z,14.90
2022-12-12T10:20:25.952Z,13.27
2022-12-12T10:22:57.039Z,13.97
2022-12-12T10:25:26.531Z,14.23
2022-12-12T10:27:55.609Z,14.67
2022-12-12T10:30:22.790Z,13.97
2022-12-12T10:32:59.837Z,13.70
2022-12-12T10:35:30.824Z,13.27
2022-12-12T10:38:14.504Z,13.40
2022-12-12T10:40:52.077Z,12.40
2022-12-12T10:43:31.626Z,12.50
2022-12-12T10:46:19.096Z,12.77
2022-12-12T10:48:47.840Z,12.37
2022-12-12T10:51:15.876Z,12.43
2022-12-12T10:53:43.044Z,11.53
2022-12-12T10:56:12.075Z,11.53
2022-12-12T10:58:43.297Z,12.73
2022-12-12T11:01:18.694Z,12.73
2022-12-12T11:03:47.748Z,15.13
2022-12-12T11:06:18.570Z,15.40
2022-12-12T11:08:56.462Z,14.17
2022-12-12T11:11:24.835Z,12.70
2022-12-12T11:13:53.467Z,11.77
2022-12-12T11:16:40.854Z,12.20
2022-12-12T11:19:18.513Z,12.20
2022-12-12T11:21:46.589Z,15.40
2022-12-12T11:24:15.327Z,11.70
2022-12-12T11:27:02.702Z,12.87
2022-12-12T11:29:32.850Z,12.67
2022-12-12T11:32:00.298Z,10.63
2022-12-12T11:34:28.264Z,11.93
2022-12-12T11:36:56.101Z,15.60
2022-12-12T11:39:33.347Z,11.23
2022-12-12T11:42:15.473Z,11.73
2022-12-12T11:44:44.039Z,12.53
2022-12-12T11:47:21.694Z,12.87
2022-12-12T11:49:49.639Z,11.70
2022-12-12T11:52:21.525Z,11.97
2022-12-12T11:54:49.257Z,11.80
2022-12-12T11:57:24.352Z,12.57
2022-12-12T12:00:11.948Z,12.07
2022-12-12T12:02:51.279Z,11.70
2022-12-12T12:05:25.932Z,11.50
2022-12-12T12:07:58.117Z,11.63
2022-12-12T12:10:40.852Z,12.13
2022-12-12T12:13:23.218Z,12.10
2022-12-12T12:16:10.698Z,11.30
2022-12-12T12:18:59.185Z,11.50
2022-12-12T12:21:28.532Z,10.37
2022-12-12T12:24:02.761Z,11.53
2022-12-12T12:26:51.093Z,10.57
2022-12-12T12:29:31.877Z,11.70
2022-12-12T12:32:12.623Z,11.03
2022-12-12T12:34:39.681Z,10.83
2022-12-12T12:37:25.596Z,10.80
2022-12-12T12:40:12.997Z,10.63
2022-12-12T12:42:56.428Z,10.57
2022-12-12T12:45:45.684Z,11.07
2022-12-12T12:48:19.700Z,9.80
2022-12-12T12:50:53.055Z,8.93
2022-12-12T12:53:30.058Z,9.53
2022-12-12T12:55:59.819Z,9.73
2022-12-12T12:58:35.990Z,9.13
2022-12-12T13:01:08.480Z,9.13
2022-12-12T13:03:46.281Z,10.33
2022-12-12T13:06:23.310Z,9.60
2022-12-12T13:08:53.705Z,9.67
2022-12-12T13:11:24.101Z,10.70
2022-12-12T13:13:52.735Z,10.10
2022-12-12T13:16:25.466Z,10.30
2022-12-12T13:19:06.973Z,10.37
2022-12-12T13:21:39.787Z,10.60
2022-12-12T13:24:12.331Z,10.50
2022-12-12T13:26:49.602Z,9.93
2022-12-12T13:29:28.978Z,10.07
2022-12-12T13:32:28.609Z,11.00
2022-12-12T13:34:57.373Z,10.17
2022-12-12T13:37:24.833Z,10.07
2022-12-12T13:40:01.940Z,10.30
2022-12-12T13:42:48.971Z,9.77
2022-12-12T13:45:35.167Z,10.87
2022-12-12T13:48:08.383Z,10.70
2022-12-12T13:50:35.576Z,11.07
2022-12-12T13:53:08.846Z,10.37
2022-12-12T13:55:36.706Z,10.83
2022-12-12T13:58:17.169Z,10.63
2022-12-12T14:00:44.645Z,10.83
2022-12-12T14:03:11.801Z,11.07
2022-12-12T14:05:41.792Z,9.87
2022-12-12T14:08:20.816Z,10.83
2022-12-12T14:10:51.496Z,10.07
2022-12-12T14:13:18.611Z,11.13
2022-12-12T14:15:47.390Z,11.10
2022-12-12T14:18:29.904Z,11.77
2022-12-12T14:21:02.194Z,11.37
2022-12-12T14:23:42.278Z,10.97
2022-12-12T14:26:36.021Z,11.57
2022-12-12T14:29:29.169Z,11.17
2022-12-12T14:32:11.663Z,11.83
2022-12-12T14:35:14.111Z,10.97
2022-12-12T14:37:51.368Z,11.50
2022-12-12T14:40:21.441Z,12.07
2022-12-12T14:43:15.835Z,11.83
2022-12-12T14:45:39.670Z,11.63
2022-12-12T14:48:10.667Z,12.50
2022-12-12T14:50:38.986Z,10.97
2022-12-12T14:53:13.838Z,15.00
2022-12-12T14:55:47.738Z,15.93
2022-12-12T14:58:18.533Z,20.10
2022-12-12T15:00:47.695Z,21.30
2022-12-12T15:03:15.547Z,19.67
2022-12-12T15:05:42.873Z,19.97
2022-12-12T15:08:19.333Z,19.57
2022-12-12T15:10:46.505Z,21.70
2022-12-12T15:13:21.018Z,25.23
2022-12-12T15:15:50.492Z,23.33
2022-12-12T15:18:19.375Z,22.90
2022-12-12T15:20:46.458Z,24.00
2022-12-12T15:23:17.922Z,22.93
2022-12-12T15:25:48.537Z,22.47
2022-12-12T15:28:16.423Z,22.37
2022-12-12T15:30:44.788Z,23.00
2022-12-12T15:33:19.418Z,21.87
2022-12-12T15:35:50.233Z,23.70
2022-12-12T15:38:17.358Z,24.63
2022-12-12T15:40:48.118Z,23.83
2022-12-12T15:43:16.997Z,23.70
2022-12-12T15:45:50.271Z,26.00
2022-12-12T15:48:18.307Z,27.50
2022-12-12T15:50:45.901Z,29.03
2022-12-12T15:53:17.532Z,29.33
2022-12-12T15:56:03.367Z,30.67
2022-12-12T15:58:39.023Z,30.43
2022-12-12T16:01:08.065Z,31.57
2022-12-12T16:03:57.082Z,32.43
2022-12-12T16:06:28.928Z,31.00
2022-12-12T16:09:08.282Z,32.53
2022-12-12T16:11:41.635Z,34.10
2022-12-12T16:14:24.477Z,32.73
2022-12-12T16:16:57.209Z,30.30
2022-12-12T16:19:38.053Z,30.87
2022-12-12T16:22:06.103Z,31.57
2022-12-12T16:24:33.254Z,29.90
2022-12-12T16:27:01.628Z,29.67
2022-12-12T16:29:28.750Z,28.50
2022-12-12T16:31:56.149Z,29.10
2022-12-12T16:34:23.484Z,28.27
2022-12-12T16:36:50.606Z,29.57
2022-12-12T16:39:17.690Z,29.17
2022-12-12T16:41:44.822Z,29.03
2022-12-12T16:44:12.066Z,29.23
2022-12-12T16:46:39.219Z,29.13
2022-12-12T16:49:09.366Z,29.43
2022-12-12T16:51:41.091Z,29.10
2022-12-12T16:54:14.628Z,29.87
2022-12-12T16:56:41.766Z,28.93
2022-12-12T16:59:09.431Z,35.53
2022-12-12T17:01:38.860Z,37.77
2022-12-12T17:04:07.689Z,39.47
2022-12-12T17:06:35.896Z,38.80
2022-12-12T17:09:03.025Z,39.10
2022-12-12T17:11:30.425Z,37.80
2022-12-12T17:13:57.568Z,38.33
2022-12-12T17:16:27.887Z,40.00
2022-12-12T17:18:55.352Z,42.00
2022-12-12T17:21:22.679Z,42.97
2022-12-12T17:23:49.781Z,40.20
2022-12-12T17:26:16.893Z,41.00
2022-12-12T17:28:44.015Z,40.07
2022-12-12T17:31:11.202Z,36.93
2022-12-12T17:33:46.197Z,36.73
2022-12-12T17:36:16.875Z,34.70
2022-12-12T17:38:43.953Z,35.93
2022-12-12T17:41:11.037Z,34.47
2022-12-12T17:43:38.400Z,35.17
2022-12-12T17:46:07.237Z,35.03
2022-12-12T17:48:35.383Z,35.10
2022-12-12T17:51:04.275Z,35.47
2022-12-12T17:53:32.634Z,35.00
2022-12-12T17:56:01.770Z,33.27
2022-12-12T17:58:39.792Z,34.93
2022-12-12T18:01:18.362Z,35.10
2022-12-12T18:03:45.960Z,34.20
2022-12-12T18:06:13.633Z,32.93
2022-12-12T18:08:41.310Z,34.37
2022-12-12T18:11:12.921Z,34.30
2022-12-12T18:13:40.624Z,34.83
2022-12-12T18:16:08.532Z,37.20
2022-12-12T18:18:35.841Z,39.83
2022-12-12T18:21:03.998Z,39.30
2022-12-12T18:23:31.244Z,41.10
2022-12-12T18:26:02.424Z,38.90
2022-12-12T18:28:29.828Z,40.33
2022-12-12T18:30:56.978Z,41.00
2022-12-12T18:33:24.092Z,40.30
2022-12-12T18:35:51.800Z,42.40
2022-12-12T18:38:19.349Z,44.13
2022-12-12T18:40:46.468Z,48.53
2022-12-12T18:43:13.545Z,50.20
2022-12-12T18:45:40.665Z,48.80
2022-12-12T18:48:07.742Z,43.53
2022-12-12T18:50:34.853Z,43.37
2022-12-12T18:53:01.948Z,43.57
2022-12-12T18:55:30.360Z,43.13
2022-12-12T18:57:58.116Z,40.97
2022-12-12T19:00:25.446Z,38.77
2022-12-12T19:02:52.558Z,41.63
2022-12-12T19:05:20.529Z,41.97
2022-12-12T19:07:47.719Z,38.43
2022-12-12T19:10:15.132Z,38.23
2022-12-12T19:12:42.448Z,39.33
2022-12-12T19:15:17.889Z,39.77
2022-12-12T19:17:45.319Z,39.13
2022-12-12T19:20:12.999Z,40.87
2022-12-12T19:22:45.418Z,40.00
2022-12-12T19:25:14.210Z,40.83
2022-12-12T19:27:41.369Z,40.87
2022-12-12T19:30:08.877Z,42.73
2022-12-12T19:32:37.298Z,42.07
2022-12-12T19:35:05.214Z,44.17
2022-12-12T19:37:32.453Z,44.90
2022-12-12T19:39:59.515Z,46.17
2022-12-12T19:42:26.634Z,47.97
2022-12-12T19:44:53.858Z,46.53
2022-12-12T19:47:21.044Z,43.03
2022-12-12T19:49:49.629Z,40.63
2022-12-12T19:52:16.914Z,43.13
2022-12-12T19:54:44.010Z,43.97
2022-12-12T19:57:11.107Z,45.47
2022-12-12T19:59:38.245Z,44.37
2022-12-12T20:02:06.606Z,43.63
2022-12-12T20:04:34.159Z,43.40
2022-12-12T20:07:01.267Z,42.13
2022-12-12T20:09:29.558Z,42.93
2022-12-12T20:11:57.406Z,43.23
2022-12-12T20:14:26.085Z,45.97
2022-12-12T20:16:54.129Z,44.90
2022-12-12T20:19:22.163Z,43.20
2022-12-12T20:22:05.593Z,44.33
2022-12-12T20:24:34.037Z,42.70
2022-12-12T20:27:03.017Z,42.23
2022-12-12T20:29:30.633Z,44.43
2022-12-12T20:31:59.823Z,42.50
2022-12-12T20:34:27.291Z,43.23
2022-12-12T20:36:55.734Z,43.63
2022-12-12T20:39:24.720Z,42.60
2022-12-12T20:41:53.525Z,43.60
2022-12-12T20:44:21.167Z,47.73
2022-12-12T20:46:48.360Z,54.40
2022-12-12T20:49:19.413Z,55.07
2022-12-12T20:51:55.816Z,52.37
2022-12-12T20:54:24.895Z,52.67
2022-12-12T20:56:52.702Z,47.73
2022-12-12T20:59:19.932Z,43.33
2022-12-12T21:01:47.623Z,39.30
2022-12-12T21:04:15.179Z,43.80
2022-12-12T21:06:44.390Z,41.47
2022-12-12T21:09:12.319Z,42.40
2022-12-12T21:11:41.274Z,43.43
2022-12-12T21:14:08.830Z,43.37
2022-12-12T21:16:37.738Z,43.03
2022-12-12T21:19:06.413Z,42.23
2022-12-12T21:21:33.736Z,42.73
2022-12-12T21:24:00.829Z,41.40
2022-12-12T21:26:29.451Z,41.20
2022-12-12T21:28:57.130Z,40.77
2022-12-12T21:31:25.598Z,39.40
2022-12-12T21:33:52.855Z,39.67
2022-12-12T21:36:21.089Z,39.17
2022-12-12T21:38:49.016Z,40.50
2022-12-12T21:41:17.416Z,38.67
2022-12-12T21:43:45.508Z,39.60
2022-12-12T21:46:14.244Z,42.57
2022-12-12T21:48:41.637Z,42.03
2022-12-12T21:51:10.057Z,40.50
2022-12-12T21:53:37.955Z,41.57
2022-12-12T21:56:06.254Z,42.20
2022-12-12T21:58:33.958Z,43.20
2022-12-12T22:01:12.015Z,41.70
2022-12-12T22:03:39.281Z,41.13
2022-12-12T22:06:10.997Z,42.23
2022-12-12T22:08:38.240Z,40.90
2022-12-12T22:11:07.700Z,41.00
2022-12-12T22:13:39.818Z,40.60
2022-12-12T22:16:19.325Z,43.00
2022-12-12T22:18:47.301Z,46.10
2022-12-12T22:21:15.766Z,46.07
2022-12-12T22:23:43.104Z,47.03
2022-12-12T22:26:14.142Z,48.90
2022-12-12T22:28:41.482Z,45.73
2022-12-12T22:31:08.604Z,45.90
2022-12-12T22:33:35.739Z,44.30
2022-12-12T22:36:03.854Z,44.97
2022-12-12T22:38:34.796Z,42.63
2022-12-12T22:41:05.923Z,40.90
2022-12-12T22:43:33.286Z,41.00
2022-12-12T22:46:04.911Z,41.63
2022-12-12T22:48:32.534Z,40.77
2022-12-12T22:50:59.698Z,41.03
2022-12-12T22:53:26.974Z,39.30
2022-12-12T22:55:54.085Z,39.93
2022-12-12T22:58:21.218Z,38.17
2022-12-12T23:00:48.285Z,38.87
2022-12-12T23:03:15.381Z,38.17
2022-12-12T23:05:42.529Z,38.37
2022-12-12T23:08:10.971Z,41.03
2022-12-12T23:10:38.665Z,39.93
2022-12-12T23:13:05.806Z,39.63
2022-12-12T23:15:32.945Z,40.50
2022-12-12T23:18:00.028Z,37.83
2022-12-12T23:20:27.151Z,38.67
2022-12-12T23:22:54.311Z,39.43
2022-12-12T23:25:21.393Z,38.97
2022-12-12T23:27:49.016Z,39.27
2022-12-12T23:30:16.178Z,38.67
2022-12-12T23:32:43.272Z,37.73
2022-12-12T23:35:10.405Z,38.17
2022-12-12T23:37:37.471Z,39.63
2022-12-12T23:40:06.285Z,39.40
2022-12-12T23:42:33.381Z,39.40
2022-12-12T23:45:00.466Z,39.10
2022-12-12T23:47:27.531Z,41.00
2022-12-12T23:49:54.650Z,41.43
2022-12-12T23:52:21.728Z,41.77
2022-12-12T23:54:48.806Z,41.63
2022-12-12T23:57:15.897Z,41.83
2022-12-12T23:59:43.910Z,41.07
